createdAt,value
2023-04-16T00:01:24.297Z,6.70
2023-04-16T00:03:51.860Z,6.70
2023-04-16T00:06:19.735Z,6.70
2023-04-16T00:08:47.286Z,6.60
2023-04-16T00:11:14.775Z,6.60
2023-04-16T00:13:42.190Z,6.60
2023-04-16T00:21:14.109Z,6.40
2023-04-16T00:23:41.232Z,6.60
2023-04-16T00:26:10.054Z,6.70
2023-04-16T00:28:37.699Z,6.80
2023-04-16T00:31:08.434Z,6.70
2023-04-16T00:33:35.606Z,6.60
2023-04-16T00:36:02.895Z,6.70
2023-04-16T00:41:09.650Z,6.70
2023-04-16T00:43:36.851Z,6.60
2023-04-16T00:46:06.266Z,6.60
2023-04-16T00:48:34.417Z,6.80
2023-04-16T00:51:02.281Z,6.70
2023-04-16T00:53:30.239Z,6.60
2023-04-16T00:56:00.431Z,6.60
2023-04-16T01:03:39.278Z,6.70
2023-04-16T01:06:08.164Z,6.80
2023-04-16T01:08:38.135Z,6.70
2023-04-16T01:11:05.853Z,6.70
2023-04-16T01:13:33.943Z,6.80
2023-04-16T01:16:01.383Z,6.80
2023-04-16T01:18:28.734Z,6.80
2023-04-16T01:26:00.645Z,6.90
2023-04-16T01:28:30.472Z,6.80
2023-04-16T01:31:00.046Z,6.70
2023-04-16T01:33:27.403Z,6.80
2023-04-16T01:36:00.535Z,6.90
2023-04-16T01:38:39.222Z,6.90
2023-04-16T01:41:06.834Z,7.00
2023-04-16T01:46:31.792Z,7.00
2023-04-16T01:49:02.648Z,7.10
2023-04-16T01:51:32.386Z,7.10
2023-04-16T01:53:59.799Z,7.00
2023-04-16T01:56:47.557Z,6.90
2023-04-16T01:59:15.200Z,7.00
2023-04-16T02:02:01.567Z,7.00
2023-04-16T02:07:11.584Z,7.00
2023-04-16T02:09:39.997Z,7.20
2023-04-16T02:12:14.341Z,7.10
2023-04-16T02:15:05.083Z,7.00
2023-04-16T02:17:41.480Z,7.10
2023-04-16T02:20:10.757Z,7.00
2023-04-16T02:22:41.837Z,7.10
2023-04-16T02:25:09.440Z,7.00
2023-04-16T02:33:31.437Z,6.80
2023-04-16T02:35:58.328Z,6.70
2023-04-16T02:38:26.994Z,6.70
2023-04-16T02:41:03.853Z,6.70
2023-04-16T02:43:38.643Z,6.80
2023-04-16T02:46:08.419Z,6.90
2023-04-16T02:48:46.399Z,7.00
2023-04-16T02:51:13.657Z,6.90
2023-04-16T03:01:44.545Z,6.90
2023-04-16T03:07:05.341Z,6.80
2023-04-16T03:09:32.581Z,6.70
2023-04-16T03:12:01.333Z,6.70
2023-04-16T03:14:28.942Z,6.60
2023-04-16T03:17:02.139Z,6.50
2023-04-16T03:22:39.577Z,6.50
2023-04-16T03:25:07.585Z,6.50
2023-04-16T03:27:35.566Z,6.60
2023-04-16T03:30:04.128Z,6.80
2023-04-16T03:32:31.675Z,6.60
2023-04-16T03:35:04.201Z,6.70
2023-04-16T03:37:31.783Z,6.70
2023-04-16T03:39:59.813Z,6.70
2023-04-16T03:47:42.057Z,6.60
2023-04-16T03:50:10.996Z,6.70
2023-04-16T03:52:38.570Z,6.70
2023-04-16T03:55:07.064Z,6.50
2023-04-16T03:57:34.833Z,6.50
2023-04-16T04:00:01.874Z,6.60
2023-04-16T04:02:29.727Z,6.80
2023-04-16T04:07:42.123Z,6.80
2023-04-16T04:10:10.358Z,6.60
2023-04-16T04:12:37.710Z,6.60
2023-04-16T04:15:06.465Z,6.60
2023-04-16T04:17:34.301Z,6.70
2023-04-16T04:20:04.337Z,6.60
2023-04-16T04:22:31.555Z,6.50
2023-04-16T04:24:59.827Z,6.50
2023-04-16T04:32:32.764Z,6.80
2023-04-16T04:35:01.506Z,6.70
2023-04-16T04:37:29.046Z,6.60
2023-04-16T04:39:56.297Z,6.50
2023-04-16T04:42:24.997Z,6.60
2023-04-16T04:44:52.104Z,6.40
2023-04-16T04:47:19.057Z,6.40
2023-04-16T04:52:27.889Z,6.50
2023-04-16T04:54:55.176Z,6.30
2023-04-16T04:57:24.863Z,6.50
2023-04-16T04:59:52.653Z,6.40
2023-04-16T05:02:39.375Z,6.50
2023-04-16T05:05:12.553Z,6.50
2023-04-16T05:07:40.230Z,6.50
2023-04-16T05:12:56.026Z,6.40
2023-04-16T05:15:23.802Z,6.50
2023-04-16T05:17:52.569Z,6.50
2023-04-16T05:20:22.441Z,6.50
2023-04-16T05:22:51.205Z,6.50
2023-04-16T05:25:18.574Z,6.40
2023-04-16T05:27:48.305Z,6.60
2023-04-16T05:35:44.396Z,6.60
2023-04-16T05:38:13.585Z,6.40
2023-04-16T05:40:44.659Z,6.60
2023-04-16T05:43:24.540Z,6.60
2023-04-16T05:45:53.680Z,6.90
2023-04-16T05:48:22.707Z,6.50
2023-04-16T05:50:53.422Z,6.60
2023-04-16T05:53:20.722Z,6.50
2023-04-16T06:00:53.611Z,6.40
2023-04-16T06:03:23.340Z,6.40
2023-04-16T06:05:52.607Z,6.40
2023-04-16T06:08:20.108Z,6.40
2023-04-16T06:10:56.112Z,6.50
2023-04-16T06:13:23.731Z,6.60
2023-04-16T06:15:50.818Z,6.70
2023-04-16T06:21:22.254Z,6.70
2023-04-16T06:23:49.366Z,6.60
2023-04-16T06:26:28.851Z,6.60
2023-04-16T06:28:56.120Z,6.50
2023-04-16T06:31:23.435Z,6.70
2023-04-16T06:33:50.900Z,6.60
2023-04-16T06:36:18.242Z,6.40
2023-04-16T06:38:54.133Z,6.40
2023-04-16T06:46:30.561Z,6.30
2023-04-16T06:48:57.929Z,6.30
2023-04-16T06:51:26.214Z,6.40
2023-04-16T06:53:53.539Z,6.50
2023-04-16T06:56:21.861Z,6.50
2023-04-16T06:58:51.106Z,6.40
2023-04-16T07:01:18.735Z,6.50
2023-04-16T07:07:57.043Z,6.50
2023-04-16T07:10:24.503Z,6.40
2023-04-16T07:12:52.473Z,6.60
2023-04-16T07:15:19.535Z,6.60
2023-04-16T07:17:46.595Z,6.60
2023-04-16T07:20:17.622Z,6.60
2023-04-16T07:22:45.707Z,6.70
2023-04-16T07:27:52.578Z,6.60
2023-04-16T07:30:20.201Z,6.70
2023-04-16T07:32:50.000Z,6.70
2023-04-16T07:35:21.025Z,6.60
2023-04-16T07:37:48.372Z,6.70
2023-04-16T07:40:18.340Z,6.70
2023-04-16T07:42:45.905Z,6.70
2023-04-16T07:48:06.053Z,6.60
2023-04-16T07:50:39.806Z,6.70
2023-04-16T07:53:11.547Z,6.80
2023-04-16T07:55:44.440Z,6.70
2023-04-16T07:58:11.962Z,6.80
2023-04-16T08:00:39.998Z,6.80
2023-04-16T08:03:18.307Z,6.90
2023-04-16T08:10:49.453Z,6.90
2023-04-16T08:13:16.862Z,7.10
2023-04-16T08:15:46.760Z,7.10
2023-04-16T08:18:15.234Z,7.10
2023-04-16T08:20:50.317Z,7.30
2023-04-16T08:23:17.972Z,7.30
2023-04-16T08:25:45.415Z,7.20
2023-04-16T08:31:19.340Z,7.20
2023-04-16T08:33:46.194Z,7.30
2023-04-16T08:36:13.982Z,7.40
2023-04-16T08:38:41.255Z,7.40
2023-04-16T08:41:13.578Z,7.30
2023-04-16T08:43:47.076Z,7.40
2023-04-16T08:46:17.216Z,7.40
2023-04-16T08:48:47.268Z,7.50
2023-04-16T08:51:18.080Z,7.50
2023-04-16T08:58:50.303Z,7.40
2023-04-16T09:01:18.862Z,7.40
2023-04-16T09:03:49.953Z,7.50
2023-04-16T09:06:17.784Z,7.50
2023-04-16T09:09:00.512Z,7.50
2023-04-16T09:11:47.841Z,7.40
2023-04-16T09:14:15.844Z,7.60
2023-04-16T09:24:51.922Z,7.80
2023-04-16T09:28:02.213Z,8.00
2023-04-16T09:30:34.246Z,8.10
2023-04-16T09:33:16.115Z,7.90
2023-04-16T09:35:48.466Z,7.90
2023-04-16T09:38:16.349Z,7.90
2023-04-16T09:41:12.496Z,8.10
2023-04-16T09:49:10.426Z,8.10
2023-04-16T09:52:02.908Z,8.10
2023-04-16T09:54:30.736Z,8.10
2023-04-16T09:56:58.109Z,8.40
2023-04-16T09:59:25.688Z,8.50
2023-04-16T10:02:15.353Z,8.40
2023-04-16T10:04:52.380Z,8.60
2023-04-16T10:12:18.749Z,8.60
2023-04-16T10:14:49.502Z,8.70
2023-04-16T10:17:17.408Z,8.70
2023-04-16T10:19:46.059Z,8.70
2023-04-16T10:22:13.735Z,8.70
2023-04-16T10:24:41.819Z,8.50
2023-04-16T10:27:11.966Z,8.70
2023-04-16T10:34:41.316Z,8.70
2023-04-16T10:37:08.702Z,8.90
2023-04-16T10:39:38.107Z,9.00
2023-04-16T10:42:10.518Z,9.00
2023-04-16T10:44:56.429Z,9.00
2023-04-16T10:47:28.649Z,8.70
2023-04-16T10:57:18.672Z,8.70
2023-04-16T10:59:46.510Z,9.00
2023-04-16T11:02:16.504Z,8.90
2023-04-16T11:04:45.065Z,8.90
2023-04-16T11:07:18.897Z,8.90
2023-04-16T11:09:49.117Z,9.00
2023-04-16T11:12:18.884Z,8.90
2023-04-16T11:19:53.511Z,9.10
2023-04-16T11:22:21.453Z,8.90
2023-04-16T11:24:54.652Z,9.00
2023-04-16T11:27:22.319Z,9.00
2023-04-16T11:29:58.445Z,9.20
2023-04-16T11:32:25.982Z,9.00
2023-04-16T11:40:35.391Z,9.10
2023-04-16T11:43:03.463Z,9.10
2023-04-16T11:45:30.628Z,9.10
2023-04-16T11:47:58.061Z,9.10
2023-04-16T11:50:29.971Z,9.20
2023-04-16T11:53:03.065Z,9.20
2023-04-16T11:55:30.562Z,9.30
2023-04-16T12:03:03.729Z,9.40
2023-04-16T12:05:33.306Z,9.60
2023-04-16T12:08:02.705Z,9.60
2023-04-16T12:10:30.869Z,9.80
2023-04-16T12:13:11.930Z,9.70
2023-04-16T12:15:47.497Z,9.60
2023-04-16T12:18:15.914Z,9.70
2023-04-16T12:25:49.530Z,10.00
2023-04-16T12:28:28.176Z,10.10
2023-04-16T12:30:55.932Z,9.90
2023-04-16T12:33:23.518Z,10.10
2023-04-16T12:35:50.831Z,10.30
2023-04-16T12:38:22.761Z,10.40
2023-04-16T12:40:52.363Z,10.50
2023-04-16T12:46:15.885Z,10.40
2023-04-16T12:48:43.431Z,10.40
2023-04-16T12:51:10.872Z,10.50
2023-04-16T12:53:38.137Z,10.40
2023-04-16T12:56:05.885Z,10.40
2023-04-16T12:58:33.822Z,10.20
2023-04-16T13:01:01.205Z,10.10
2023-04-16T13:08:34.428Z,10.30
2023-04-16T13:11:01.489Z,10.40
2023-04-16T13:13:29.006Z,10.50
2023-04-16T13:15:56.606Z,10.40
2023-04-16T13:18:24.908Z,10.50
2023-04-16T13:20:52.593Z,10.40
2023-04-16T13:23:19.953Z,10.30
2023-04-16T13:30:59.075Z,10.20
2023-04-16T13:33:26.928Z,10.20
2023-04-16T13:35:55.035Z,10.30
2023-04-16T13:38:22.636Z,10.30
2023-04-16T13:40:49.944Z,10.60
2023-04-16T13:43:18.275Z,10.70
2023-04-16T13:45:45.485Z,10.70
2023-04-16T13:53:23.769Z,10.70
2023-04-16T13:55:51.152Z,10.60
2023-04-16T13:58:18.566Z,10.70
2023-04-16T14:00:46.200Z,10.80
2023-04-16T14:03:13.723Z,11.20
2023-04-16T14:05:41.899Z,11.00
2023-04-16T14:08:09.633Z,10.90
2023-04-16T14:16:27.856Z,11.10
2023-04-16T14:18:56.506Z,11.40
2023-04-16T14:21:23.782Z,11.30
2023-04-16T14:23:51.190Z,11.30
2023-04-16T14:26:18.494Z,11.20
2023-04-16T14:28:45.964Z,11.00
2023-04-16T14:31:14.796Z,11.00
2023-04-16T14:36:38.320Z,10.70
2023-04-16T14:39:05.728Z,10.60
2023-04-16T14:41:33.029Z,10.90
2023-04-16T14:44:00.386Z,11.00
2023-04-16T14:46:28.329Z,10.80
2023-04-16T14:48:55.857Z,10.70
2023-04-16T14:51:23.194Z,10.90
2023-04-16T14:58:55.541Z,10.80
2023-04-16T15:01:22.970Z,10.80
2023-04-16T15:03:50.500Z,10.70
2023-04-16T15:06:19.085Z,10.60
2023-04-16T15:08:48.436Z,10.50
2023-04-16T15:11:15.395Z,10.20
2023-04-16T15:13:44.713Z,10.10
2023-04-16T15:21:17.411Z,10.30
2023-04-16T15:23:44.642Z,10.30
2023-04-16T15:26:12.281Z,10.40
2023-04-16T15:28:39.505Z,10.40
2023-04-16T15:31:06.814Z,10.50
2023-04-16T15:33:34.218Z,10.50
2023-04-16T15:36:02.022Z,10.60
2023-04-16T15:43:34.049Z,10.40
2023-04-16T15:46:01.300Z,10.20
2023-04-16T15:48:29.271Z,10.20
2023-04-16T15:50:56.925Z,10.10
2023-04-16T15:53:24.642Z,10.10
2023-04-16T15:55:53.325Z,9.90
2023-04-16T15:58:20.699Z,9.90
2023-04-16T16:05:52.225Z,9.90
2023-04-16T16:08:19.666Z,9.80
2023-04-16T16:10:46.650Z,9.90
2023-04-16T16:13:18.020Z,10.00
2023-04-16T16:15:46.078Z,10.10
2023-04-16T16:18:13.133Z,10.20
2023-04-16T16:20:40.667Z,10.30
2023-04-16T16:28:15.057Z,10.30
2023-04-16T16:30:46.791Z,9.80
2023-04-16T16:33:14.291Z,9.80
2023-04-16T16:35:42.283Z,9.60
2023-04-16T16:38:09.403Z,9.50
2023-04-16T16:40:37.221Z,9.60
2023-04-16T16:43:05.058Z,9.70
2023-04-16T16:51:24.993Z,9.70
2023-04-16T16:53:53.301Z,9.80
2023-04-16T16:56:20.317Z,9.80
2023-04-16T16:58:48.399Z,9.70
2023-04-16T17:01:16.747Z,9.40
2023-04-16T17:03:44.168Z,9.50
2023-04-16T17:06:11.955Z,9.50
2023-04-16T17:08:47.013Z,9.40
2023-04-16T17:16:20.513Z,9.50
2023-04-16T17:18:47.807Z,9.30
2023-04-16T17:21:16.518Z,9.30
2023-04-16T17:23:46.829Z,9.40
2023-04-16T17:26:15.330Z,9.60
2023-04-16T17:28:42.832Z,9.50
2023-04-16T17:31:11.361Z,9.10
2023-04-16T17:40:49.093Z,9.00
2023-04-16T17:43:16.416Z,9.00
2023-04-16T17:45:43.733Z,9.20
2023-04-16T17:48:13.787Z,9.00
2023-04-16T17:50:41.929Z,9.00
2023-04-16T17:53:10.309Z,9.10
2023-04-16T17:55:39.262Z,9.00
2023-04-16T18:03:13.462Z,9.20
2023-04-16T18:05:45.963Z,9.00
2023-04-16T18:08:16.776Z,9.10
2023-04-16T18:10:43.946Z,9.00
2023-04-16T18:13:11.492Z,9.00
2023-04-16T18:15:39.771Z,8.90
2023-04-16T18:18:07.314Z,8.80
2023-04-16T18:25:40.422Z,8.70
2023-04-16T18:28:08.178Z,8.90
2023-04-16T18:30:35.608Z,8.80
2023-04-16T18:35:32.742Z,9.00
2023-04-16T18:38:00.049Z,9.10
2023-04-16T18:40:28.978Z,9.20
2023-04-16T18:48:03.671Z,9.30
2023-04-16T18:50:31.882Z,9.10
2023-04-16T18:52:59.108Z,9.10
2023-04-16T18:55:26.920Z,9.40
2023-04-16T18:57:54.608Z,9.50
2023-04-16T19:00:22.021Z,9.30
2023-04-16T19:02:49.636Z,9.20
2023-04-16T19:10:23.691Z,9.10
2023-04-16T19:12:51.061Z,8.90
2023-04-16T19:15:18.504Z,8.90
2023-04-16T19:17:46.554Z,8.90
2023-04-16T19:20:14.700Z,8.90
2023-04-16T19:22:41.997Z,8.90
2023-04-16T19:25:10.372Z,8.80
2023-04-16T19:32:43.183Z,8.80
2023-04-16T19:35:11.178Z,8.90
2023-04-16T19:37:38.557Z,8.90
2023-04-16T19:40:07.119Z,8.80
2023-04-16T19:42:35.281Z,8.70
2023-04-16T19:45:02.792Z,8.80
2023-04-16T19:47:32.181Z,8.80
2023-04-16T19:55:20.132Z,8.60
2023-04-16T19:57:48.416Z,8.50
2023-04-16T20:00:17.076Z,8.50
2023-04-16T20:02:45.049Z,8.50
2023-04-16T20:05:14.464Z,8.50
2023-04-16T20:07:42.120Z,8.50
2023-04-16T20:10:10.830Z,8.50
2023-04-16T20:20:46.723Z,8.80
2023-04-16T20:23:14.121Z,8.50
2023-04-16T20:25:42.178Z,8.60
2023-04-16T20:28:09.714Z,8.70
2023-04-16T20:30:38.980Z,8.60
2023-04-16T20:33:07.061Z,8.50
2023-04-16T20:35:35.167Z,8.50
2023-04-16T20:41:20.529Z,8.70
2023-04-16T20:43:52.316Z,8.50
2023-04-16T20:46:24.064Z,8.40
2023-04-16T20:48:51.642Z,8.30
2023-04-16T20:51:19.011Z,8.30
2023-04-16T20:53:46.234Z,8.30
2023-04-16T20:56:15.057Z,8.40
2023-04-16T21:03:41.815Z,8.40
2023-04-16T21:06:09.225Z,8.30
2023-04-16T21:08:36.573Z,8.50
2023-04-16T21:11:03.841Z,8.40
2023-04-16T21:13:31.082Z,8.50
2023-04-16T21:15:58.355Z,8.40
2023-04-16T21:18:25.504Z,8.50
2023-04-16T21:26:27.456Z,8.00
2023-04-16T21:28:55.259Z,8.00
2023-04-16T21:31:22.792Z,8.20
2023-04-16T21:33:50.357Z,8.10
2023-04-16T21:36:17.919Z,8.20
2023-04-16T21:39:16.886Z,8.20
2023-04-16T21:41:46.903Z,8.20
2023-04-16T21:49:22.566Z,8.20
2023-04-16T21:51:50.235Z,8.20
2023-04-16T21:54:19.587Z,8.30
2023-04-16T21:56:46.915Z,8.30
2023-04-16T21:59:14.504Z,8.20
2023-04-16T22:01:41.786Z,8.10
2023-04-16T22:04:10.072Z,8.20
2023-04-16T22:11:37.794Z,8.00
2023-04-16T22:14:07.555Z,8.30
2023-04-16T22:16:35.308Z,8.20
2023-04-16T22:19:02.236Z,8.20
2023-04-16T22:21:29.374Z,8.10
2023-04-16T22:23:56.798Z,8.00
2023-04-16T22:26:23.764Z,8.10
2023-04-16T22:33:55.611Z,8.10
2023-04-16T22:36:23.164Z,8.30
2023-04-16T22:38:50.239Z,8.20
2023-04-16T22:41:17.414Z,8.30
2023-04-16T22:43:44.718Z,8.30
2023-04-16T22:46:12.185Z,8.30
2023-04-16T22:48:39.672Z,8.30
2023-04-16T22:56:17.988Z,8.30
2023-04-16T22:58:45.819Z,8.10
2023-04-16T23:01:13.262Z,8.10
2023-04-16T23:03:40.584Z,7.90
2023-04-16T23:06:07.951Z,7.90
2023-04-16T23:08:35.464Z,7.80
2023-04-16T23:11:03.306Z,7.70
2023-04-16T23:18:37.593Z,7.80
2023-04-16T23:21:05.083Z,8.00
2023-04-16T23:23:32.045Z,8.00
2023-04-16T23:26:00.664Z,7.90
2023-04-16T23:28:28.014Z,8.10
2023-04-16T23:30:55.458Z,8.00
2023-04-16T23:33:22.830Z,8.00
2023-04-16T23:40:59.959Z,8.10
2023-04-16T23:43:27.303Z,8.00
2023-04-16T23:45:54.480Z,8.00
2023-04-16T23:48:21.904Z,7.90
2023-04-16T23:50:48.812Z,8.00
2023-04-16T23:53:16.663Z,8.10
2023-04-16T23:55:43.919Z,8.20
